Platinum, Alaska
Current Conditions -  °F | °C
As of 10:56 AM on Wednesday 17 Dec 2014 (Local Time) from PAPM Reporting Station
Broken Clouds Broken Clouds  
Wind Chill: 23°   Ceiling: 2800
Heat Index: 32°   Visibility: 10mi
Dew Point: 27°   Wind: 12mph
Humidity: 82%   Direction: 30°NNE
Pressure: 29.42"   Gusts: NA
Location:  59°N, 161.81°W
Report Text: PAPM 171956Z AUTO 03010KT 10SM BKN028 BKN046 00/M03 A2942 RMK AO2 TSNO T00001027 BKN V SCT SLP961 $
Loading
Personal Weather Stations






























Interactive Weather Map New forecast layout! Learn more

10-Day Weather Forecast

Advertisements
Track Severe Weather on mobile